sensor_id;sensor_type;location;lat;lon;timestamp;pressure;altitude;pressure_sealevel;temperature;humidity
6343;BME280;3204;42.698;23.298;2022-08-07T00:01:26;94705.06;;;24.37;55.79
6343;BME280;3204;42.698;23.298;2022-08-07T00:03:51;94709.81;;;24.40;56.07
6343;BME280;3204;42.698;23.298;2022-08-07T00:06:17;94704.28;;;24.37;56.07
6343;BME280;3204;42.698;23.298;2022-08-07T00:08:42;94708.22;;;24.39;56.19
6343;BME280;3204;42.698;23.298;2022-08-07T00:11:08;94700.72;;;24.36;56.26
6343;BME280;3204;42.698;23.298;2022-08-07T00:13:34;94707.03;;;24.37;56.46
6343;BME280;3204;42.698;23.298;2022-08-07T00:16:03;94705.50;;;24.32;56.87
6343;BME280;3204;42.698;23.298;2022-08-07T00:18:28;94705.88;;;24.34;56.55
6343;BME280;3204;42.698;23.298;2022-08-07T00:21:00;94707.09;;;24.30;56.82
6343;BME280;3204;42.698;23.298;2022-08-07T00:23:26;94712.66;;;24.26;56.71
6343;BME280;3204;42.698;23.298;2022-08-07T00:25:51;94711.88;;;24.22;57.07
6343;BME280;3204;42.698;23.298;2022-08-07T00:28:17;94708.69;;;24.20;56.82
6343;BME280;3204;42.698;23.298;2022-08-07T00:30:43;94720.56;;;24.21;57.03
6343;BME280;3204;42.698;23.298;2022-08-07T00:33:09;94722.16;;;24.11;58.12
6343;BME280;3204;42.698;23.298;2022-08-07T00:35:34;94725.38;;;24.10;57.91
6343;BME280;3204;42.698;23.298;2022-08-07T00:38:00;94727.31;;;24.13;57.89
6343;BME280;3204;42.698;23.298;2022-08-07T00:40:27;94723.78;;;24.12;57.67
6343;BME280;3204;42.698;23.298;2022-08-07T00:42:52;94722.19;;;24.08;57.95
6343;BME280;3204;42.698;23.298;2022-08-07T00:45:18;94724.97;;;24.08;58.02
6343;BME280;3204;42.698;23.298;2022-08-07T00:47:45;94712.69;;;24.05;58.13
6343;BME280;3204;42.698;23.298;2022-08-07T00:50:12;94716.66;;;24.04;58.39
6343;BME280;3204;42.698;23.298;2022-08-07T00:52:37;94715.88;;;24.00;58.43
6343;BME280;3204;42.698;23.298;2022-08-07T00:55:03;94717.06;;;23.99;58.47
6343;BME280;3204;42.698;23.298;2022-08-07T00:57:29;94718.66;;;23.97;58.60
6343;BME280;3204;42.698;23.298;2022-08-07T00:59:55;94715.91;;;23.93;58.67
6343;BME280;3204;42.698;23.298;2022-08-07T01:02:22;94723.03;;;23.91;58.68
6343;BME280;3204;42.698;23.298;2022-08-07T01:04:48;94722.22;;;23.90;58.60
6343;BME280;3204;42.698;23.298;2022-08-07T01:07:14;94714.28;;;23.85;58.79
6343;BME280;3204;42.698;23.298;2022-08-07T01:09:40;94719.84;;;23.85;58.80
6343;BME280;3204;42.698;23.298;2022-08-07T01:12:06;94721.03;;;23.84;58.88
6343;BME280;3204;42.698;23.298;2022-08-07T01:14:32;94721.81;;;23.81;58.81
6343;BME280;3204;42.698;23.298;2022-08-07T01:16:58;94721.81;;;23.78;59.08
6343;BME280;3204;42.698;23.298;2022-08-07T01:19:25;94727.75;;;23.76;59.17
6343;BME280;3204;42.698;23.298;2022-08-07T01:21:52;94727.78;;;23.73;59.24
6343;BME280;3204;42.698;23.298;2022-08-07T01:24:19;94733.69;;;23.75;59.36
6343;BME280;3204;42.698;23.298;2022-08-07T01:26:45;94738.84;;;23.83;59.61
6343;BME280;3204;42.698;23.298;2022-08-07T01:29:11;94731.72;;;23.79;59.91
6343;BME280;3204;42.698;23.298;2022-08-07T01:31:37;94732.50;;;23.72;60.32
6343;BME280;3204;42.698;23.298;2022-08-07T01:34:03;94724.59;;;23.67;60.39
6343;BME280;3204;42.698;23.298;2022-08-07T01:36:30;94729.75;;;23.65;60.55
6343;BME280;3204;42.698;23.298;2022-08-07T01:38:56;94730.94;;;23.68;60.63
6343;BME280;3204;42.698;23.298;2022-08-07T01:41:23;94735.28;;;23.69;60.52
6343;BME280;3204;42.698;23.298;2022-08-07T01:43:49;94738.03;;;23.72;60.56
6343;BME280;3204;42.698;23.298;2022-08-07T01:46:16;94736.09;;;23.69;60.53
6343;BME280;3204;42.698;23.298;2022-08-07T01:48:43;94757.84;;;23.67;60.67
6343;BME280;3204;42.698;23.298;2022-08-07T01:51:12;94760.19;;;23.86;60.66
6343;BME280;3204;42.698;23.298;2022-08-07T01:53:41;94778.44;;;23.98;60.05
6343;BME280;3204;42.698;23.298;2022-08-07T01:56:13;94789.91;;;23.96;60.10
6343;BME280;3204;42.698;23.298;2022-08-07T01:58:43;94810.13;;;23.93;59.90
6343;BME280;3204;42.698;23.298;2022-08-07T02:01:22;94824.31;;;23.81;59.09
6343;BME280;3204;42.698;23.298;2022-08-07T02:03:55;94829.84;;;23.67;59.09
6343;BME280;3204;42.698;23.298;2022-08-07T02:06:24;94821.16;;;23.51;60.05
6343;BME280;3204;42.698;23.298;2022-08-07T02:08:53;94820.72;;;23.49;60.41
6343;BME280;3204;42.698;23.298;2022-08-07T02:11:19;94824.28;;;23.39;60.80
6343;BME280;3204;42.698;23.298;2022-08-07T02:13:46;94832.59;;;23.32;61.73
6343;BME280;3204;42.698;23.298;2022-08-07T02:16:13;94828.63;;;23.33;62.60
6343;BME280;3204;42.698;23.298;2022-08-07T02:18:39;94825.47;;;23.42;63.57
6343;BME280;3204;42.698;23.298;2022-08-07T02:21:06;94832.19;;;23.37;65.03
6343;BME280;3204;42.698;23.298;2022-08-07T02:23:34;94824.28;;;23.29;68.02
6343;BME280;3204;42.698;23.298;2022-08-07T02:26:02;94814.78;;;23.30;69.68
6343;BME280;3204;42.698;23.298;2022-08-07T02:28:29;94806.81;;;23.18;69.74
6343;BME280;3204;42.698;23.298;2022-08-07T02:30:56;94793.34;;;23.16;70.31
6343;BME280;3204;42.698;23.298;2022-08-07T02:33:26;94778.38;;;23.21;71.70
6343;BME280;3204;42.698;23.298;2022-08-07T02:35:54;94769.72;;;23.36;72.15
6343;BME280;3204;42.698;23.298;2022-08-07T02:38:26;94773.25;;;23.37;71.94
6343;BME280;3204;42.698;23.298;2022-08-07T02:40:53;94766.13;;;23.32;71.59
6343;BME280;3204;42.698;23.298;2022-08-07T02:43:19;94764.94;;;23.26;72.18
6343;BME280;3204;42.698;23.298;2022-08-07T02:45:46;94759.38;;;23.23;72.18
6343;BME280;3204;42.698;23.298;2022-08-07T02:48:12;94757.38;;;23.16;71.66
6343;BME280;3204;42.698;23.298;2022-08-07T02:50:41;94757.81;;;23.18;70.96
6343;BME280;3204;42.698;23.298;2022-08-07T02:53:14;94767.66;;;23.12;71.39
6343;BME280;3204;42.698;23.298;2022-08-07T02:55:45;94777.53;;;23.13;71.92
6343;BME280;3204;42.698;23.298;2022-08-07T02:58:13;94777.16;;;23.15;72.45
6343;BME280;3204;42.698;23.298;2022-08-07T03:00:42;94753.03;;;23.15;72.93
6343;BME280;3204;42.698;23.298;2022-08-07T03:03:10;94750.25;;;23.15;73.43
6343;BME280;3204;42.698;23.298;2022-08-07T03:05:36;94738.44;;;23.18;73.11
6343;BME280;3204;42.698;23.298;2022-08-07T03:08:05;94732.91;;;23.18;72.72
6343;BME280;3204;42.698;23.298;2022-08-07T03:10:32;94738.00;;;23.16;72.86
6343;BME280;3204;42.698;23.298;2022-08-07T03:12:58;94735.22;;;23.16;72.91
6343;BME280;3204;42.698;23.298;2022-08-07T03:15:25;94743.59;;;23.41;75.70
6343;BME280;3204;42.698;23.298;2022-08-07T03:17:52;94749.16;;;23.48;76.37
6343;BME280;3204;42.698;23.298;2022-08-07T03:20:18;94745.16;;;23.42;76.69
6343;BME280;3204;42.698;23.298;2022-08-07T03:22:43;94749.13;;;23.30;76.86
6343;BME280;3204;42.698;23.298;2022-08-07T03:25:10;94752.22;;;23.11;77.18
6343;BME280;3204;42.698;23.298;2022-08-07T03:27:35;94748.25;;;23.02;78.40
6343;BME280;3204;42.698;23.298;2022-08-07T03:30:03;94749.41;;;22.94;78.73
6343;BME280;3204;42.698;23.298;2022-08-07T03:32:32;94752.97;;;22.87;78.86
6343;BME280;3204;42.698;23.298;2022-08-07T03:35:02;94754.91;;;22.73;79.38
6343;BME280;3204;42.698;23.298;2022-08-07T03:37:29;94747.00;;;22.71;79.72
6343;BME280;3204;42.698;23.298;2022-08-07T03:39:56;94747.00;;;22.75;79.82
6343;BME280;3204;42.698;23.298;2022-08-07T03:42:22;94756.09;;;22.82;80.39
6343;BME280;3204;42.698;23.298;2022-08-07T03:44:48;94753.38;;;22.96;80.55
6343;BME280;3204;42.698;23.298;2022-08-07T03:47:14;94750.22;;;22.94;80.56
6343;BME280;3204;42.698;23.298;2022-08-07T03:49:41;94761.31;;;23.05;80.87
6343;BME280;3204;42.698;23.298;2022-08-07T03:52:08;94757.38;;;23.06;80.49
6343;BME280;3204;42.698;23.298;2022-08-07T03:54:34;94765.28;;;23.14;80.14
6343;BME280;3204;42.698;23.298;2022-08-07T03:57:02;94767.28;;;23.17;79.33
6343;BME280;3204;42.698;23.298;2022-08-07T03:59:28;94773.19;;;23.16;78.74
6343;BME280;3204;42.698;23.298;2022-08-07T04:01:55;94782.28;;;23.09;77.88
6343;BME280;3204;42.698;23.298;2022-08-07T04:04:21;94775.16;;;23.08;77.57
6343;BME280;3204;42.698;23.298;2022-08-07T04:06:46;94772.00;;;23.13;77.60
6343;BME280;3204;42.698;23.298;2022-08-07T04:09:12;94769.63;;;23.15;77.78
6343;BME280;3204;42.698;23.298;2022-08-07T04:11:40;94770.47;;;23.19;77.87
6343;BME280;3204;42.698;23.298;2022-08-07T04:14:06;94773.25;;;23.26;77.75
6343;BME280;3204;42.698;23.298;2022-08-07T04:16:32;94783.53;;;23.33;77.79
6343;BME280;3204;42.698;23.298;2022-08-07T04:18:58;94780.78;;;23.43;77.73
6343;BME280;3204;42.698;23.298;2022-08-07T04:21:24;94777.63;;;23.48;77.49
6343;BME280;3204;42.698;23.298;2022-08-07T04:23:50;94785.53;;;23.53;76.95
6343;BME280;3204;42.698;23.298;2022-08-07T04:26:16;94794.25;;;23.66;75.96
6343;BME280;3204;42.698;23.298;2022-08-07T04:28:42;94788.31;;;23.71;75.92
6343;BME280;3204;42.698;23.298;2022-08-07T04:31:08;94795.84;;;23.70;75.89
6343;BME280;3204;42.698;23.298;2022-08-07T04:33:35;94802.97;;;23.71;76.08
6343;BME280;3204;42.698;23.298;2022-08-07T04:36:02;94800.56;;;23.73;75.53
6343;BME280;3204;42.698;23.298;2022-08-07T04:38:28;94814.03;;;23.85;74.79
6343;BME280;3204;42.698;23.298;2022-08-07T04:40:54;94807.31;;;23.90;74.32
6343;BME280;3204;42.698;23.298;2022-08-07T04:43:25;94805.34;;;23.83;74.77
6343;BME280;3204;42.698;23.298;2022-08-07T04:46:10;94801.75;;;23.76;74.35
6343;BME280;3204;42.698;23.298;2022-08-07T04:54:07;94808.09;;;23.80;75.00
6343;BME280;3204;42.698;23.298;2022-08-07T04:56:45;94809.28;;;23.79;74.94
6343;BME280;3204;42.698;23.298;2022-08-07T04:59:15;94812.47;;;23.81;74.74
6343;BME280;3204;42.698;23.298;2022-08-07T05:04:32;94816.06;;;23.92;75.11
6343;BME280;3204;42.698;23.298;2022-08-07T05:07:07;94817.25;;;23.94;74.72
6343;BME280;3204;42.698;23.298;2022-08-07T05:09:44;94823.56;;;24.05;73.80
6343;BME280;3204;42.698;23.298;2022-08-07T05:12:21;94833.84;;;24.15;72.80
6343;BME280;3204;42.698;23.298;2022-08-07T05:14:50;94828.69;;;24.10;72.56
6343;BME280;3204;42.698;23.298;2022-08-07T05:17:19;94829.50;;;24.11;72.85
6343;BME280;3204;42.698;23.298;2022-08-07T05:19:50;94830.66;;;24.20;72.74
6343;BME280;3204;42.698;23.298;2022-08-07T05:22:19;94824.31;;;24.27;71.90
6343;BME280;3204;42.698;23.298;2022-08-07T05:24:46;94831.44;;;24.42;71.43
6343;BME280;3204;42.698;23.298;2022-08-07T05:27:14;94836.97;;;24.52;71.55
6343;BME280;3204;42.698;23.298;2022-08-07T05:29:41;94835.78;;;24.64;71.22
6343;BME280;3204;42.698;23.298;2022-08-07T05:32:09;94825.84;;;24.70;70.56
6343;BME280;3204;42.698;23.298;2022-08-07T05:34:36;94831.38;;;24.80;69.95
6343;BME280;3204;42.698;23.298;2022-08-07T05:37:02;94838.13;;;24.79;69.28
6343;BME280;3204;42.698;23.298;2022-08-07T05:39:29;94832.09;;;24.91;69.05
6343;BME280;3204;42.698;23.298;2022-08-07T05:41:55;94836.03;;;25.04;68.75
6343;BME280;3204;42.698;23.298;2022-08-07T05:44:21;94841.50;;;25.29;66.22
6343;BME280;3204;42.698;23.298;2022-08-07T05:46:48;94849.75;;;25.39;65.32
6343;BME280;3204;42.698;23.298;2022-08-07T05:49:14;94860.47;;;25.44;65.43
6343;BME280;3204;42.698;23.298;2022-08-07T05:51:43;94862.06;;;25.38;64.14
6343;BME280;3204;42.698;23.298;2022-08-07T05:54:10;94862.50;;;25.23;63.96
6343;BME280;3204;42.698;23.298;2022-08-07T05:56:38;94864.53;;;25.15;64.65
6343;BME280;3204;42.698;23.298;2022-08-07T05:59:05;94868.09;;;25.26;65.05
6343;BME280;3204;42.698;23.298;2022-08-07T06:01:34;94876.44;;;25.26;64.44
6343;BME280;3204;42.698;23.298;2022-08-07T06:04:02;94879.56;;;25.25;65.68
6343;BME280;3204;42.698;23.298;2022-08-07T06:06:28;94879.56;;;25.35;63.92
6343;BME280;3204;42.698;23.298;2022-08-07T06:08:54;94877.88;;;25.48;63.48
6343;BME280;3204;42.698;23.298;2022-08-07T06:11:21;94882.69;;;25.44;63.65
6343;BME280;3204;42.698;23.298;2022-08-07T06:13:46;94888.28;;;25.34;64.13
6343;BME280;3204;42.698;23.298;2022-08-07T06:16:14;94881.97;;;25.30;64.75
6343;BME280;3204;42.698;23.298;2022-08-07T06:18:40;94873.94;;;25.46;64.45
6343;BME280;3204;42.698;23.298;2022-08-07T06:21:06;94881.94;;;25.33;63.89
6343;BME280;3204;42.698;23.298;2022-08-07T06:23:32;94884.13;;;25.70;64.26
6343;BME280;3204;42.698;23.298;2022-08-07T06:25:58;94886.78;;;25.94;62.78
6343;BME280;3204;42.698;23.298;2022-08-07T06:28:25;94885.09;;;26.07;62.24
6343;BME280;3204;42.698;23.298;2022-08-07T06:30:50;94885.31;;;26.27;60.86
6343;BME280;3204;42.698;23.298;2022-08-07T06:33:16;94893.53;;;26.44;61.21
6343;BME280;3204;42.698;23.298;2022-08-07T06:35:43;94889.00;;;26.64;60.26
6343;BME280;3204;42.698;23.298;2022-08-07T06:38:08;94886.09;;;26.78;60.02
6343;BME280;3204;42.698;23.298;2022-08-07T06:40:38;94887.25;;;26.81;58.84
6343;BME280;3204;42.698;23.298;2022-08-07T06:43:05;94884.25;;;26.98;58.95
6343;BME280;3204;42.698;23.298;2022-08-07T06:45:32;94885.63;;;26.83;58.53
6343;BME280;3204;42.698;23.298;2022-08-07T06:47:58;94882.91;;;27.13;58.99
6343;BME280;3204;42.698;23.298;2022-08-07T06:50:24;94880.63;;;27.38;57.32
6343;BME280;3204;42.698;23.298;2022-08-07T06:52:52;94874.41;;;27.58;55.42
6343;BME280;3204;42.698;23.298;2022-08-07T06:55:44;94881.19;;;27.27;56.73
6343;BME280;3204;42.698;23.298;2022-08-07T06:58:11;94882.13;;;27.47;55.04
6343;BME280;3204;42.698;23.298;2022-08-07T07:00:40;94887.91;;;27.63;53.90
6343;BME280;3204;42.698;23.298;2022-08-07T07:03:08;94879.88;;;27.65;54.91
6343;BME280;3204;42.698;23.298;2022-08-07T07:05:34;94882.09;;;27.77;54.91
6343;BME280;3204;42.698;23.298;2022-08-07T07:08:00;94883.34;;;28.02;53.82
6343;BME280;3204;42.698;23.298;2022-08-07T07:10:31;94891.78;;;27.99;53.72
6343;BME280;3204;42.698;23.298;2022-08-07T07:15:35;94883.22;;;28.36;53.07
6343;BME280;3204;42.698;23.298;2022-08-07T07:18:43;94887.75;;;28.26;53.05
6343;BME280;3204;42.698;23.298;2022-08-07T07:21:16;94883.78;;;28.27;53.75
6343;BME280;3204;42.698;23.298;2022-08-07T07:23:43;94875.41;;;28.50;53.15
6343;BME280;3204;42.698;23.298;2022-08-07T07:26:13;94884.00;;;28.40;53.34
6343;BME280;3204;42.698;23.298;2022-08-07T07:31:21;94879.25;;;28.60;51.97
6343;BME280;3204;42.698;23.298;2022-08-07T07:33:51;94892.78;;;28.61;51.14
6343;BME280;3204;42.698;23.298;2022-08-07T07:36:19;94882.63;;;28.48;50.48
6343;BME280;3204;42.698;23.298;2022-08-07T07:38:46;94884.00;;;28.63;49.55
6343;BME280;3204;42.698;23.298;2022-08-07T07:41:14;94881.22;;;28.63;49.34
6343;BME280;3204;42.698;23.298;2022-08-07T07:43:42;94885.31;;;28.78;49.05
6343;BME280;3204;42.698;23.298;2022-08-07T07:46:09;94883.75;;;28.77;49.40
6343;BME280;3204;42.698;23.298;2022-08-07T07:48:36;94886.16;;;28.98;48.41
6343;BME280;3204;42.698;23.298;2022-08-07T07:51:05;94882.03;;;29.06;47.98
6343;BME280;3204;42.698;23.298;2022-08-07T07:53:31;94882.84;;;29.26;48.46
6343;BME280;3204;42.698;23.298;2022-08-07T07:55:58;94891.88;;;29.53;46.59
6343;BME280;3204;42.698;23.298;2022-08-07T07:58:30;94888.47;;;29.42;47.20
6343;BME280;3204;42.698;23.298;2022-08-07T08:00:57;94890.25;;;29.55;47.43
6343;BME280;3204;42.698;23.298;2022-08-07T08:03:23;94891.44;;;29.35;48.02
6343;BME280;3204;42.698;23.298;2022-08-07T08:05:49;94888.69;;;29.51;47.21
6343;BME280;3204;42.698;23.298;2022-08-07T08:08:16;94899.69;;;29.61;46.77
6343;BME280;3204;42.698;23.298;2022-08-07T08:10:42;94899.03;;;29.54;47.01
6343;BME280;3204;42.698;23.298;2022-08-07T08:13:10;94899.03;;;29.54;47.88
6343;BME280;3204;42.698;23.298;2022-08-07T08:15:39;94903.34;;;29.78;47.52
6343;BME280;3204;42.698;23.298;2022-08-07T08:18:08;94900.56;;;29.94;46.06
6343;BME280;3204;42.698;23.298;2022-08-07T08:20:35;94898.06;;;29.99;45.84
6343;BME280;3204;42.698;23.298;2022-08-07T08:23:02;94892.88;;;29.82;46.24
6343;BME280;3204;42.698;23.298;2022-08-07T08:25:50;94898.41;;;30.01;45.29
6343;BME280;3204;42.698;23.298;2022-08-07T08:28:38;94894.44;;;29.83;46.18
6343;BME280;3204;42.698;23.298;2022-08-07T08:31:22;94897.66;;;29.62;46.38
6343;BME280;3204;42.698;23.298;2022-08-07T08:33:51;94899.41;;;29.36;47.20
6343;BME280;3204;42.698;23.298;2022-08-07T08:36:18;94897.75;;;29.58;47.22
6343;BME280;3204;42.698;23.298;2022-08-07T08:38:45;94902.75;;;29.86;46.66
6343;BME280;3204;42.698;23.298;2022-08-07T08:44:18;94898.22;;;30.28;46.05
6343;BME280;3204;42.698;23.298;2022-08-07T08:47:01;94895.44;;;30.44;45.28
6343;BME280;3204;42.698;23.298;2022-08-07T08:49:48;94901.66;;;30.67;45.47
6343;BME280;3204;42.698;23.298;2022-08-07T08:52:38;94901.19;;;31.01;44.31
6343;BME280;3204;42.698;23.298;2022-08-07T08:55:40;94894.50;;;31.27;44.32
6343;BME280;3204;42.698;23.298;2022-08-07T08:58:18;94893.81;;;31.51;43.17
6343;BME280;3204;42.698;23.298;2022-08-07T09:00:51;94897.19;;;31.59;42.67
6343;BME280;3204;42.698;23.298;2022-08-07T09:03:25;94898.94;;;31.40;42.69
6343;BME280;3204;42.698;23.298;2022-08-07T09:06:07;94888.09;;;31.55;43.53
6343;BME280;3204;42.698;23.298;2022-08-07T09:09:17;94896.66;;;31.64;42.88
6343;BME280;3204;42.698;23.298;2022-08-07T09:11:47;94889.25;;;31.29;42.80
6343;BME280;3204;42.698;23.298;2022-08-07T09:14:19;94898.09;;;31.27;42.29
6343;BME280;3204;42.698;23.298;2022-08-07T09:17:18;94898.50;;;30.81;42.84
6343;BME280;3204;42.698;23.298;2022-08-07T09:25:25;94888.13;;;31.10;42.75
6343;BME280;3204;42.698;23.298;2022-08-07T09:30:26;94878.34;;;31.02;42.90
6343;BME280;3204;42.698;23.298;2022-08-07T09:33:11;94872.44;;;31.13;42.26
6343;BME280;3204;42.698;23.298;2022-08-07T09:35:46;94876.69;;;31.05;42.47
6343;BME280;3204;42.698;23.298;2022-08-07T09:38:27;94865.03;;;31.35;42.17
6343;BME280;3204;42.698;23.298;2022-08-07T09:41:04;94875.72;;;31.40;41.27
6343;BME280;3204;42.698;23.298;2022-08-07T09:52:39;94875.22;;;31.29;42.14
6343;BME280;3204;42.698;23.298;2022-08-07T10:07:02;94859.88;;;30.89;41.04
6343;BME280;3204;42.698;23.298;2022-08-07T10:21:48;94833.59;;;31.27;40.36
6343;BME280;3204;42.698;23.298;2022-08-07T10:24:34;94843.84;;;31.18;41.24
6343;BME280;3204;42.698;23.298;2022-08-07T10:30:04;94840.78;;;31.00;41.31
6343;BME280;3204;42.698;23.298;2022-08-07T10:35:33;94837.22;;;31.12;41.84
6343;BME280;3204;42.698;23.298;2022-08-07T10:41:48;94830.56;;;31.63;41.06
6343;BME280;3204;42.698;23.298;2022-08-07T10:44:23;94847.25;;;31.95;40.74
6343;BME280;3204;42.698;23.298;2022-08-07T10:47:04;94849.59;;;32.09;40.23
6343;BME280;3204;42.698;23.298;2022-08-07T10:52:11;94846.22;;;32.01;40.21
6343;BME280;3204;42.698;23.298;2022-08-07T10:54:44;94848.00;;;31.83;40.49
6343;BME280;3204;42.698;23.298;2022-08-07T11:00:07;94849.78;;;31.36;41.32
6343;BME280;3204;42.698;23.298;2022-08-07T11:05:39;94843.63;;;30.68;41.93
6343;BME280;3204;42.698;23.298;2022-08-07T11:10:47;94846.97;;;30.15;43.38
6343;BME280;3204;42.698;23.298;2022-08-07T11:13:50;94840.56;;;30.30;43.32
6343;BME280;3204;42.698;23.298;2022-08-07T11:17:12;94840.75;;;30.55;42.85
6343;BME280;3204;42.698;23.298;2022-08-07T11:19:39;94839.78;;;30.62;43.44
6343;BME280;3204;42.698;23.298;2022-08-07T11:22:29;94836.16;;;30.77;42.97
6343;BME280;3204;42.698;23.298;2022-08-07T11:25:17;94826.63;;;30.59;42.71
6343;BME280;3204;42.698;23.298;2022-08-07T11:28:00;94830.50;;;30.81;41.37
6343;BME280;3204;42.698;23.298;2022-08-07T11:30:36;94835.63;;;30.66;41.69
6343;BME280;3204;42.698;23.298;2022-08-07T11:33:16;94840.84;;;30.68;41.98
6343;BME280;3204;42.698;23.298;2022-08-07T11:35:56;94862.19;;;30.30;43.99
6343;BME280;3204;42.698;23.298;2022-08-07T11:38:31;94845.22;;;30.01;45.54
6343;BME280;3204;42.698;23.298;2022-08-07T11:41:08;94842.00;;;30.03;45.85
6343;BME280;3204;42.698;23.298;2022-08-07T11:43:45;94847.06;;;30.08;45.60
6343;BME280;3204;42.698;23.298;2022-08-07T11:52:07;94841.69;;;29.07;48.44
6343;BME280;3204;42.698;23.298;2022-08-07T11:54:50;94847.19;;;29.10;48.30
6343;BME280;3204;42.698;23.298;2022-08-07T11:57:32;94843.91;;;29.15;48.23
6343;BME280;3204;42.698;23.298;2022-08-07T12:00:09;94841.19;;;29.12;49.31
6343;BME280;3204;42.698;23.298;2022-08-07T12:09:00;94832.59;;;30.45;45.71
6343;BME280;3204;42.698;23.298;2022-08-07T12:11:54;94848.81;;;30.21;46.53
6343;BME280;3204;42.698;23.298;2022-08-07T12:14:24;94840.81;;;29.49;48.24
6343;BME280;3204;42.698;23.298;2022-08-07T12:17:04;94843.97;;;29.51;48.68
6343;BME280;3204;42.698;23.298;2022-08-07T12:19:44;94847.78;;;29.21;49.12
6343;BME280;3204;42.698;23.298;2022-08-07T12:25:05;94838.72;;;28.94;48.41
6343;BME280;3204;42.698;23.298;2022-08-07T12:27:57;94844.06;;;29.08;47.91
6343;BME280;3204;42.698;23.298;2022-08-07T12:30:28;94829.66;;;29.10;47.77
6343;BME280;3204;42.698;23.298;2022-08-07T12:33:04;94839.31;;;29.05;48.43
6343;BME280;3204;42.698;23.298;2022-08-07T12:35:32;94820.81;;;29.11;48.85
6343;BME280;3204;42.698;23.298;2022-08-07T12:37:59;94834.00;;;29.50;48.17
6343;BME280;3204;42.698;23.298;2022-08-07T12:40:28;94834.72;;;29.54;48.50
6343;BME280;3204;42.698;23.298;2022-08-07T12:42:57;94831.53;;;29.55;49.50
6343;BME280;3204;42.698;23.298;2022-08-07T12:45:32;94834.94;;;29.98;47.72
6343;BME280;3204;42.698;23.298;2022-08-07T12:48:31;94822.63;;;30.28;45.23
6343;BME280;3204;42.698;23.298;2022-08-07T12:51:11;94818.34;;;30.23;43.97
6343;BME280;3204;42.698;23.298;2022-08-07T12:53:51;94818.44;;;30.20;44.61
6343;BME280;3204;42.698;23.298;2022-08-07T12:58:50;94821.16;;;30.23;45.12
6343;BME280;3204;42.698;23.298;2022-08-07T13:06:50;94814.69;;;30.26;45.20
6343;BME280;3204;42.698;23.298;2022-08-07T13:17:42;94814.97;;;30.76;41.77
6343;BME280;3204;42.698;23.298;2022-08-07T13:20:43;94807.88;;;30.88;41.73
6343;BME280;3204;42.698;23.298;2022-08-07T13:23:19;94797.59;;;30.97;42.29
6343;BME280;3204;42.698;23.298;2022-08-07T13:26:00;94808.47;;;31.24;41.92
6343;BME280;3204;42.698;23.298;2022-08-07T13:28:56;94799.72;;;31.22;41.49
6343;BME280;3204;42.698;23.298;2022-08-07T13:31:39;94803.53;;;31.28;40.55
6343;BME280;3204;42.698;23.298;2022-08-07T13:34:19;94797.25;;;30.95;41.04
6343;BME280;3204;42.698;23.298;2022-08-07T13:36:51;94795.94;;;31.00;41.00
6343;BME280;3204;42.698;23.298;2022-08-07T13:41:57;94790.56;;;31.34;41.66
6343;BME280;3204;42.698;23.298;2022-08-07T13:44:31;94799.03;;;30.89;42.16
6343;BME280;3204;42.698;23.298;2022-08-07T13:47:00;94799.78;;;30.90;41.59
6343;BME280;3204;42.698;23.298;2022-08-07T13:49:33;94807.72;;;31.07;41.63
6343;BME280;3204;42.698;23.298;2022-08-07T13:52:04;94793.03;;;31.03;41.35
6343;BME280;3204;42.698;23.298;2022-08-07T13:54:32;94788.69;;;30.86;41.33
6343;BME280;3204;42.698;23.298;2022-08-07T13:57:01;94795.69;;;30.94;41.18
6343;BME280;3204;42.698;23.298;2022-08-07T13:59:30;94791.34;;;31.06;40.17
6343;BME280;3204;42.698;23.298;2022-08-07T14:02:00;94798.91;;;30.93;40.46
6343;BME280;3204;42.698;23.298;2022-08-07T14:04:50;94802.06;;;30.34;41.53
6343;BME280;3204;42.698;23.298;2022-08-07T14:07:29;94805.19;;;29.88;41.99
6343;BME280;3204;42.698;23.298;2022-08-07T14:10:00;94799.75;;;29.81;42.07
6343;BME280;3204;42.698;23.298;2022-08-07T14:12:51;94805.97;;;29.89;43.30
6343;BME280;3204;42.698;23.298;2022-08-07T14:18:02;94807.47;;;29.93;43.19
6343;BME280;3204;42.698;23.298;2022-08-07T14:20:30;94808.25;;;29.94;43.68
6343;BME280;3204;42.698;23.298;2022-08-07T14:23:15;94808.41;;;30.03;44.83
6343;BME280;3204;42.698;23.298;2022-08-07T14:25:43;94810.16;;;29.97;45.15
6343;BME280;3204;42.698;23.298;2022-08-07T14:28:13;94806.06;;;29.85;45.66
6343;BME280;3204;42.698;23.298;2022-08-07T14:30:45;94801.38;;;29.63;46.27
6343;BME280;3204;42.698;23.298;2022-08-07T14:33:11;94804.25;;;29.40;47.02
6343;BME280;3204;42.698;23.298;2022-08-07T14:35:39;94801.72;;;29.10;47.90
6343;BME280;3204;42.698;23.298;2022-08-07T14:38:07;94801.06;;;29.02;48.50
6343;BME280;3204;42.698;23.298;2022-08-07T14:40:33;94800.75;;;28.97;48.79
6343;BME280;3204;42.698;23.298;2022-08-07T14:43:09;94792.00;;;28.95;48.81
6343;BME280;3204;42.698;23.298;2022-08-07T14:48:08;94793.66;;;28.92;48.80
6343;BME280;3204;42.698;23.298;2022-08-07T14:50:41;94796.53;;;28.89;49.01
6343;BME280;3204;42.698;23.298;2022-08-07T14:53:07;94792.44;;;28.93;48.84
6343;BME280;3204;42.698;23.298;2022-08-07T14:55:34;94798.09;;;28.90;48.47
6343;BME280;3204;42.698;23.298;2022-08-07T14:58:01;94789.72;;;28.90;49.13
6343;BME280;3204;42.698;23.298;2022-08-07T15:00:29;94799.69;;;28.91;48.44
6343;BME280;3204;42.698;23.298;2022-08-07T15:03:01;94795.56;;;28.76;48.65
6343;BME280;3204;42.698;23.298;2022-08-07T15:05:28;94787.84;;;28.83;48.70
6343;BME280;3204;42.698;23.298;2022-08-07T15:07:55;94793.38;;;28.87;48.40
6343;BME280;3204;42.698;23.298;2022-08-07T15:10:25;94788.50;;;28.91;47.98
6343;BME280;3204;42.698;23.298;2022-08-07T15:12:56;94787.28;;;28.92;48.00
6343;BME280;3204;42.698;23.298;2022-08-07T15:15:36;94786.69;;;28.81;48.10
6343;BME280;3204;42.698;23.298;2022-08-07T15:18:14;94777.34;;;28.91;47.88
6343;BME280;3204;42.698;23.298;2022-08-07T15:20:43;94778.84;;;28.95;48.28
6343;BME280;3204;42.698;23.298;2022-08-07T15:23:21;94785.81;;;29.07;47.54
6343;BME280;3204;42.698;23.298;2022-08-07T15:25:55;94776.00;;;29.18;47.50
6343;BME280;3204;42.698;23.298;2022-08-07T15:28:23;94772.50;;;29.30;46.98